<?xml version="1.0" encoding="UTF-8" standalone="no" ?>
<gpx xmlns="http://www.topografix.com/GPX/1/1" xmlns:xsi="http://www.w3.org/2001/XMLSchema-instance" xsi:schemaLocation="http://www.topografix.com/GPX/1/1 http://www.topografix.com/GPX/1/1/gpx.xsd" version="1.1" creator="VisuGPX - https://www.visugpx.com">
  <metadata>
    <name>Boucle de Bonrepos-sur-Aussonnelle</name>
  </metadata>
  <wpt lat="43.55752" lon="1.17712">
    <ele>204</ele>
    <name><![CDATA[Parking Plaine des sports de Fontenilles]]></name>
  </wpt>
  <wpt lat="43.55916" lon="1.16955">
    <ele>209</ele>
    <name><![CDATA[Bifurcation à gauche]]></name>
  </wpt>
  <wpt lat="43.55406" lon="1.16515">
    <ele>214</ele>
    <name><![CDATA[Sentier à droite]]></name>
  </wpt>
  <wpt lat="43.55693" lon="1.15063">
    <ele>265</ele>
    <name><![CDATA[Embranchement, à gauche]]></name>
  </wpt>
  <wpt lat="43.55171" lon="1.15193">
    <ele>220</ele>
    <name><![CDATA[Voie piétonne, à droite]]></name>
  </wpt>
  <wpt lat="43.54768" lon="1.14942">
    <ele>214</ele>
    <name><![CDATA[Carrefour de la boucle du parc]]></name>
  </wpt>
  <wpt lat="43.54615" lon="1.14946">
    <ele>216</ele>
    <name><![CDATA[Mairie]]></name>
  </wpt>
  <wpt lat="43.55167" lon="1.15211">
    <ele>220</ele>
    <name><![CDATA[retour par le chemin Garrousset]]></name>
  </wpt>
  <wpt lat="43.55056" lon="1.17076">
    <ele>207</ele>
    <name><![CDATA[Chemin de liaison vers les Magnolias]]></name>
  </wpt>
  <wpt lat="43.55301" lon="1.17859">
    <ele>205</ele>
    <name><![CDATA[Rond-point]]></name>
  </wpt>
  <wpt lat="43.55751" lon="1.17712">
    <ele>204</ele>
    <name><![CDATA[Parking Plaine des sports de Fontenilles]]></name>
  </wpt>
  <trk>
    <name><![CDATA[Boucle de Bonrepos-sur-Aussonnelle]]></name>
    <trkseg>
      <trkpt lat="43.55752" lon="1.17712">
        <ele>204</ele>
        <time>2020-08-11T14:26:46+02:00</time>
      </trkpt>
      <trkpt lat="43.55736" lon="1.17705">
        <ele>204</ele>
        <time>2020-08-11T14:27:24+02:00</time>
      </trkpt>
      <trkpt lat="43.55745" lon="1.17669">
        <ele>204</ele>
        <time>2020-08-11T14:27:35+02:00</time>
      </trkpt>
      <trkpt lat="43.55751" lon="1.17644">
        <ele>204</ele>
        <time>2020-08-11T14:27:51+02:00</time>
      </trkpt>
      <trkpt lat="43.55751" lon="1.1763">
        <ele>204</ele>
        <time>2020-08-11T14:28:04+02:00</time>
      </trkpt>
      <trkpt lat="43.55757" lon="1.17616">
        <ele>204</ele>
        <time>2020-08-11T14:29:10+02:00</time>
      </trkpt>
      <trkpt lat="43.5576" lon="1.17599">
        <ele>204</ele>
        <time>2020-08-11T14:29:21+02:00</time>
      </trkpt>
      <trkpt lat="43.55766" lon="1.17588">
        <ele>204</ele>
        <time>2020-08-11T14:29:30+02:00</time>
      </trkpt>
      <trkpt lat="43.55781" lon="1.17509">
        <ele>205</ele>
        <time>2020-08-11T14:30:17+02:00</time>
      </trkpt>
      <trkpt lat="43.55803" lon="1.17435">
        <ele>206</ele>
        <time>2020-08-11T14:31:04+02:00</time>
      </trkpt>
      <trkpt lat="43.55808" lon="1.17394">
        <ele>206</ele>
        <time>2020-08-11T14:31:28+02:00</time>
      </trkpt>
      <trkpt lat="43.55815" lon="1.1738">
        <ele>206</ele>
        <time>2020-08-11T14:31:38+02:00</time>
      </trkpt>
      <trkpt lat="43.55837" lon="1.17298">
        <ele>207</ele>
        <time>2020-08-11T14:32:28+02:00</time>
      </trkpt>
      <trkpt lat="43.55856" lon="1.17193">
        <ele>207</ele>
        <time>2020-08-11T14:33:31+02:00</time>
      </trkpt>
      <trkpt lat="43.55867" lon="1.17164">
        <ele>208</ele>
        <time>2020-08-11T14:33:50+02:00</time>
      </trkpt>
      <trkpt lat="43.55879" lon="1.17113">
        <ele>208</ele>
        <time>2020-08-11T14:34:21+02:00</time>
      </trkpt>
      <trkpt lat="43.55889" lon="1.17046">
        <ele>209</ele>
        <time>2020-08-11T14:35:01+02:00</time>
      </trkpt>
      <trkpt lat="43.55916" lon="1.16955">
        <ele>209</ele>
        <time>2020-08-11T14:35:58+02:00</time>
      </trkpt>
      <trkpt lat="43.55897" lon="1.16916">
        <ele>210</ele>
        <time>2020-08-11T14:36:25+02:00</time>
      </trkpt>
      <trkpt lat="43.55868" lon="1.16785">
        <ele>212</ele>
        <time>2020-08-11T14:37:45+02:00</time>
      </trkpt>
      <trkpt lat="43.55836" lon="1.1676">
        <ele>212</ele>
        <time>2020-08-11T14:38:14+02:00</time>
      </trkpt>
      <trkpt lat="43.55787" lon="1.16677">
        <ele>214</ele>
        <time>2020-08-11T14:39:16+02:00</time>
      </trkpt>
      <trkpt lat="43.55747" lon="1.16632">
        <ele>214</ele>
        <time>2020-08-11T14:39:58+02:00</time>
      </trkpt>
      <trkpt lat="43.55722" lon="1.16615">
        <ele>214</ele>
        <time>2020-08-11T14:40:20+02:00</time>
      </trkpt>
      <trkpt lat="43.55687" lon="1.16571">
        <ele>214</ele>
        <time>2020-08-11T14:40:58+02:00</time>
      </trkpt>
      <trkpt lat="43.55665" lon="1.1656">
        <ele>214</ele>
        <time>2020-08-11T14:41:17+02:00</time>
      </trkpt>
      <trkpt lat="43.55619" lon="1.16564">
        <ele>214</ele>
        <time>2020-08-11T14:41:53+02:00</time>
      </trkpt>
      <trkpt lat="43.55572" lon="1.16555">
        <ele>215</ele>
        <time>2020-08-11T14:42:31+02:00</time>
      </trkpt>
      <trkpt lat="43.5551" lon="1.16537">
        <ele>215</ele>
        <time>2020-08-11T14:43:22+02:00</time>
      </trkpt>
      <trkpt lat="43.55488" lon="1.16537">
        <ele>215</ele>
        <time>2020-08-11T14:43:40+02:00</time>
      </trkpt>
      <trkpt lat="43.55448" lon="1.16518">
        <ele>214</ele>
        <time>2020-08-11T14:44:14+02:00</time>
      </trkpt>
      <trkpt lat="43.55421" lon="1.16511">
        <ele>214</ele>
        <time>2020-08-11T14:44:36+02:00</time>
      </trkpt>
      <trkpt lat="43.55406" lon="1.16515">
        <ele>214</ele>
        <time>2020-08-11T14:44:48+02:00</time>
      </trkpt>
      <trkpt lat="43.55401" lon="1.16509">
        <ele>214</ele>
        <time>2020-08-11T14:44:53+02:00</time>
      </trkpt>
      <trkpt lat="43.55399" lon="1.16496">
        <ele>214</ele>
        <time>2020-08-11T14:45:01+02:00</time>
      </trkpt>
      <trkpt lat="43.55385" lon="1.16482">
        <ele>214</ele>
        <time>2020-08-11T14:45:15+02:00</time>
      </trkpt>
      <trkpt lat="43.55385" lon="1.16465">
        <ele>214</ele>
        <time>2020-08-11T14:45:25+02:00</time>
      </trkpt>
      <trkpt lat="43.55402" lon="1.16437">
        <ele>216</ele>
        <time>2020-08-11T14:45:46+02:00</time>
      </trkpt>
      <trkpt lat="43.55407" lon="1.16421">
        <ele>217</ele>
        <time>2020-08-11T14:45:56+02:00</time>
      </trkpt>
      <trkpt lat="43.55408" lon="1.16397">
        <ele>218</ele>
        <time>2020-08-11T14:46:10+02:00</time>
      </trkpt>
      <trkpt lat="43.55411" lon="1.1639">
        <ele>219</ele>
        <time>2020-08-11T14:46:15+02:00</time>
      </trkpt>
      <trkpt lat="43.55415" lon="1.16391">
        <ele>219</ele>
        <time>2020-08-11T14:46:18+02:00</time>
      </trkpt>
      <trkpt lat="43.55412" lon="1.16382">
        <ele>219</ele>
        <time>2020-08-11T14:46:24+02:00</time>
      </trkpt>
      <trkpt lat="43.55427" lon="1.16342">
        <ele>222</ele>
        <time>2020-08-11T14:46:50+02:00</time>
      </trkpt>
      <trkpt lat="43.55438" lon="1.16343">
        <ele>222</ele>
        <time>2020-08-11T14:46:59+02:00</time>
      </trkpt>
      <trkpt lat="43.55464" lon="1.16331">
        <ele>223</ele>
        <time>2020-08-11T14:47:21+02:00</time>
      </trkpt>
      <trkpt lat="43.55514" lon="1.16285">
        <ele>226</ele>
        <time>2020-08-11T14:48:09+02:00</time>
      </trkpt>
      <trkpt lat="43.55574" lon="1.16196">
        <ele>232</ele>
        <time>2020-08-11T14:49:19+02:00</time>
      </trkpt>
      <trkpt lat="43.55609" lon="1.16156">
        <ele>234</ele>
        <time>2020-08-11T14:49:56+02:00</time>
      </trkpt>
      <trkpt lat="43.55617" lon="1.16141">
        <ele>235</ele>
        <time>2020-08-11T14:50:06+02:00</time>
      </trkpt>
      <trkpt lat="43.55617" lon="1.16131">
        <ele>236</ele>
        <time>2020-08-11T14:50:12+02:00</time>
      </trkpt>
      <trkpt lat="43.5564" lon="1.16114">
        <ele>237</ele>
        <time>2020-08-11T14:50:33+02:00</time>
      </trkpt>
      <trkpt lat="43.55652" lon="1.16084">
        <ele>238</ele>
        <time>2020-08-11T14:50:53+02:00</time>
      </trkpt>
      <trkpt lat="43.55672" lon="1.16064">
        <ele>236</ele>
        <time>2020-08-11T14:51:13+02:00</time>
      </trkpt>
      <trkpt lat="43.55686" lon="1.16058">
        <ele>235</ele>
        <time>2020-08-11T14:51:24+02:00</time>
      </trkpt>
      <trkpt lat="43.5569" lon="1.1604">
        <ele>235</ele>
        <time>2020-08-11T14:51:35+02:00</time>
      </trkpt>
      <trkpt lat="43.55682" lon="1.16011">
        <ele>237</ele>
        <time>2020-08-11T14:51:53+02:00</time>
      </trkpt>
      <trkpt lat="43.55686" lon="1.15962">
        <ele>239</ele>
        <time>2020-08-11T14:52:22+02:00</time>
      </trkpt>
      <trkpt lat="43.55683" lon="1.15913">
        <ele>241</ele>
        <time>2020-08-11T14:52:51+02:00</time>
      </trkpt>
      <trkpt lat="43.55695" lon="1.15913">
        <ele>240</ele>
        <time>2020-08-11T14:53:00+02:00</time>
      </trkpt>
      <trkpt lat="43.55702" lon="1.15893">
        <ele>241</ele>
        <time>2020-08-11T14:53:13+02:00</time>
      </trkpt>
      <trkpt lat="43.55695" lon="1.15889">
        <ele>241</ele>
        <time>2020-08-11T14:53:19+02:00</time>
      </trkpt>
      <trkpt lat="43.55693" lon="1.15869">
        <ele>243</ele>
        <time>2020-08-11T14:53:31+02:00</time>
      </trkpt>
      <trkpt lat="43.55684" lon="1.15844">
        <ele>245</ele>
        <time>2020-08-11T14:53:47+02:00</time>
      </trkpt>
      <trkpt lat="43.55675" lon="1.1583">
        <ele>247</ele>
        <time>2020-08-11T14:53:58+02:00</time>
      </trkpt>
      <trkpt lat="43.55665" lon="1.15828">
        <ele>248</ele>
        <time>2020-08-11T14:54:06+02:00</time>
      </trkpt>
      <trkpt lat="43.55664" lon="1.15816">
        <ele>248</ele>
        <time>2020-08-11T14:54:13+02:00</time>
      </trkpt>
      <trkpt lat="43.55677" lon="1.15773">
        <ele>252</ele>
        <time>2020-08-11T14:54:40+02:00</time>
      </trkpt>
      <trkpt lat="43.55695" lon="1.15734">
        <ele>256</ele>
        <time>2020-08-11T14:55:07+02:00</time>
      </trkpt>
      <trkpt lat="43.55709" lon="1.1572">
        <ele>258</ele>
        <time>2020-08-11T14:55:21+02:00</time>
      </trkpt>
      <trkpt lat="43.55718" lon="1.15697">
        <ele>261</ele>
        <time>2020-08-11T14:55:36+02:00</time>
      </trkpt>
      <trkpt lat="43.55719" lon="1.15685">
        <ele>262</ele>
        <time>2020-08-11T14:55:43+02:00</time>
      </trkpt>
      <trkpt lat="43.55713" lon="1.15661">
        <ele>264</ele>
        <time>2020-08-11T14:55:58+02:00</time>
      </trkpt>
      <trkpt lat="43.5571" lon="1.15666">
        <ele>263</ele>
        <time>2020-08-11T14:56:01+02:00</time>
      </trkpt>
      <trkpt lat="43.55696" lon="1.15657">
        <ele>264</ele>
        <time>2020-08-11T14:56:14+02:00</time>
      </trkpt>
      <trkpt lat="43.55687" lon="1.15647">
        <ele>264</ele>
        <time>2020-08-11T14:56:23+02:00</time>
      </trkpt>
      <trkpt lat="43.55687" lon="1.15642">
        <ele>264</ele>
        <time>2020-08-11T14:56:26+02:00</time>
      </trkpt>
      <trkpt lat="43.55724" lon="1.15564">
        <ele>273</ele>
        <time>2020-08-11T14:57:20+02:00</time>
      </trkpt>
      <trkpt lat="43.55731" lon="1.15533">
        <ele>274</ele>
        <time>2020-08-11T14:57:39+02:00</time>
      </trkpt>
      <trkpt lat="43.55744" lon="1.15508">
        <ele>277</ele>
        <time>2020-08-11T14:57:57+02:00</time>
      </trkpt>
      <trkpt lat="43.55757" lon="1.15468">
        <ele>279</ele>
        <time>2020-08-11T14:58:22+02:00</time>
      </trkpt>
      <trkpt lat="43.55764" lon="1.15433">
        <ele>280</ele>
        <time>2020-08-11T14:58:43+02:00</time>
      </trkpt>
      <trkpt lat="43.55764" lon="1.1543">
        <ele>280</ele>
        <time>2020-08-11T14:58:45+02:00</time>
      </trkpt>
      <trkpt lat="43.55752" lon="1.15433">
        <ele>280</ele>
        <time>2020-08-11T14:58:55+02:00</time>
      </trkpt>
      <trkpt lat="43.55752" lon="1.15413">
        <ele>280</ele>
        <time>2020-08-11T14:59:06+02:00</time>
      </trkpt>
      <trkpt lat="43.55736" lon="1.15394">
        <ele>278</ele>
        <time>2020-08-11T14:59:23+02:00</time>
      </trkpt>
      <trkpt lat="43.55716" lon="1.15338">
        <ele>274</ele>
        <time>2020-08-11T14:59:59+02:00</time>
      </trkpt>
      <trkpt lat="43.55713" lon="1.15292">
        <ele>271</ele>
        <time>2020-08-11T15:00:26+02:00</time>
      </trkpt>
      <trkpt lat="43.55695" lon="1.15221">
        <ele>271</ele>
        <time>2020-08-11T15:01:10+02:00</time>
      </trkpt>
      <trkpt lat="43.557" lon="1.15174">
        <ele>270</ele>
        <time>2020-08-11T15:01:37+02:00</time>
      </trkpt>
      <trkpt lat="43.55704" lon="1.15175">
        <ele>269</ele>
        <time>2020-08-11T15:01:41+02:00</time>
      </trkpt>
      <trkpt lat="43.55693" lon="1.15063">
        <ele>265</ele>
        <time>2020-08-11T15:02:46+02:00</time>
      </trkpt>
      <trkpt lat="43.55686" lon="1.15052">
        <ele>264</ele>
        <time>2020-08-11T15:02:55+02:00</time>
      </trkpt>
      <trkpt lat="43.55671" lon="1.15052">
        <ele>264</ele>
        <time>2020-08-11T15:03:07+02:00</time>
      </trkpt>
      <trkpt lat="43.55644" lon="1.1506">
        <ele>263</ele>
        <time>2020-08-11T15:03:29+02:00</time>
      </trkpt>
      <trkpt lat="43.556" lon="1.15085">
        <ele>256</ele>
        <time>2020-08-11T15:04:07+02:00</time>
      </trkpt>
      <trkpt lat="43.55583" lon="1.15081">
        <ele>253</ele>
        <time>2020-08-11T15:04:21+02:00</time>
      </trkpt>
      <trkpt lat="43.55571" lon="1.1509">
        <ele>251</ele>
        <time>2020-08-11T15:04:32+02:00</time>
      </trkpt>
      <trkpt lat="43.55546" lon="1.15097">
        <ele>248</ele>
        <time>2020-08-11T15:04:52+02:00</time>
      </trkpt>
      <trkpt lat="43.5554" lon="1.15097">
        <ele>246</ele>
        <time>2020-08-11T15:04:57+02:00</time>
      </trkpt>
      <trkpt lat="43.55537" lon="1.1509">
        <ele>246</ele>
        <time>2020-08-11T15:05:02+02:00</time>
      </trkpt>
      <trkpt lat="43.55525" lon="1.15089">
        <ele>244</ele>
        <time>2020-08-11T15:05:11+02:00</time>
      </trkpt>
      <trkpt lat="43.55504" lon="1.15108">
        <ele>242</ele>
        <time>2020-08-11T15:05:31+02:00</time>
      </trkpt>
      <trkpt lat="43.55489" lon="1.15107">
        <ele>240</ele>
        <time>2020-08-11T15:05:43+02:00</time>
      </trkpt>
      <trkpt lat="43.55463" lon="1.15114">
        <ele>238</ele>
        <time>2020-08-11T15:06:05+02:00</time>
      </trkpt>
      <trkpt lat="43.55456" lon="1.1512">
        <ele>237</ele>
        <time>2020-08-11T15:06:11+02:00</time>
      </trkpt>
      <trkpt lat="43.55434" lon="1.15123">
        <ele>235</ele>
        <time>2020-08-11T15:06:29+02:00</time>
      </trkpt>
      <trkpt lat="43.55398" lon="1.15139">
        <ele>233</ele>
        <time>2020-08-11T15:06:59+02:00</time>
      </trkpt>
      <trkpt lat="43.55375" lon="1.15142">
        <ele>232</ele>
        <time>2020-08-11T15:07:18+02:00</time>
      </trkpt>
      <trkpt lat="43.55367" lon="1.1515">
        <ele>232</ele>
        <time>2020-08-11T15:07:26+02:00</time>
      </trkpt>
      <trkpt lat="43.55329" lon="1.15154">
        <ele>230</ele>
        <time>2020-08-11T15:07:56+02:00</time>
      </trkpt>
      <trkpt lat="43.5528" lon="1.15172">
        <ele>226</ele>
        <time>2020-08-11T15:08:37+02:00</time>
      </trkpt>
      <trkpt lat="43.55242" lon="1.15178">
        <ele>224</ele>
        <time>2020-08-11T15:09:07+02:00</time>
      </trkpt>
      <trkpt lat="43.55227" lon="1.15188">
        <ele>223</ele>
        <time>2020-08-11T15:09:21+02:00</time>
      </trkpt>
      <trkpt lat="43.55196" lon="1.15188">
        <ele>221</ele>
        <time>2020-08-11T15:09:46+02:00</time>
      </trkpt>
      <trkpt lat="43.55184" lon="1.15196">
        <ele>221</ele>
        <time>2020-08-11T15:09:56+02:00</time>
      </trkpt>
      <trkpt lat="43.55171" lon="1.15193">
        <ele>220</ele>
        <time>2020-08-11T15:10:07+02:00</time>
      </trkpt>
      <trkpt lat="43.55162" lon="1.15196">
        <ele>220</ele>
        <time>2020-08-11T15:10:14+02:00</time>
      </trkpt>
      <trkpt lat="43.55148" lon="1.15183">
        <ele>219</ele>
        <time>2020-08-11T15:10:28+02:00</time>
      </trkpt>
      <trkpt lat="43.55132" lon="1.15168">
        <ele>219</ele>
        <time>2020-08-11T15:10:41+02:00</time>
      </trkpt>
      <trkpt lat="43.55112" lon="1.15159">
        <ele>218</ele>
        <time>2020-08-11T15:11:17+02:00</time>
      </trkpt>
      <trkpt lat="43.55083" lon="1.15132">
        <ele>218</ele>
        <time>2020-08-11T15:11:25+02:00</time>
      </trkpt>
      <trkpt lat="43.55061" lon="1.15115">
        <ele>218</ele>
        <time>2020-08-11T15:11:48+02:00</time>
      </trkpt>
      <trkpt lat="43.55039" lon="1.15101">
        <ele>218</ele>
        <time>2020-08-11T15:12:07+02:00</time>
      </trkpt>
      <trkpt lat="43.55027" lon="1.15099">
        <ele>217</ele>
        <time>2020-08-11T15:12:18+02:00</time>
      </trkpt>
      <trkpt lat="43.55009" lon="1.15076">
        <ele>218</ele>
        <time>2020-08-11T15:12:30+02:00</time>
      </trkpt>
      <trkpt lat="43.54985" lon="1.15058">
        <ele>218</ele>
        <time>2020-08-11T15:12:50+02:00</time>
      </trkpt>
      <trkpt lat="43.54965" lon="1.15045">
        <ele>218</ele>
        <time>2020-08-11T15:13:15+02:00</time>
      </trkpt>
      <trkpt lat="43.54953" lon="1.15028">
        <ele>218</ele>
        <time>2020-08-11T15:13:28+02:00</time>
      </trkpt>
      <trkpt lat="43.54938" lon="1.1502">
        <ele>218</ele>
        <time>2020-08-11T15:13:48+02:00</time>
      </trkpt>
      <trkpt lat="43.54902" lon="1.14997">
        <ele>217</ele>
        <time>2020-08-11T15:14:20+02:00</time>
      </trkpt>
      <trkpt lat="43.54889" lon="1.14994">
        <ele>217</ele>
        <time>2020-08-11T15:14:30+02:00</time>
      </trkpt>
      <trkpt lat="43.5485" lon="1.14973">
        <ele>216</ele>
        <time>2020-08-11T15:15:04+02:00</time>
      </trkpt>
      <trkpt lat="43.54768" lon="1.14942">
        <ele>214</ele>
        <time>2020-08-11T15:16:10+02:00</time>
      </trkpt>
      <trkpt lat="43.54771" lon="1.15009">
        <ele>214</ele>
        <time>2020-08-11T15:16:14+02:00</time>
      </trkpt>
      <trkpt lat="43.54777" lon="1.15056">
        <ele>214</ele>
        <time>2020-08-11T15:16:19+02:00</time>
      </trkpt>
      <trkpt lat="43.54781" lon="1.15099">
        <ele>213</ele>
        <time>2020-08-11T15:16:44+02:00</time>
      </trkpt>
      <trkpt lat="43.54783" lon="1.15141">
        <ele>213</ele>
        <time>2020-08-11T15:17:07+02:00</time>
      </trkpt>
      <trkpt lat="43.54788" lon="1.15188">
        <ele>213</ele>
        <time>2020-08-11T15:18:33+02:00</time>
      </trkpt>
      <trkpt lat="43.54788" lon="1.15221">
        <ele>213</ele>
        <time>2020-08-11T15:18:52+02:00</time>
      </trkpt>
      <trkpt lat="43.54784" lon="1.15223">
        <ele>213</ele>
        <time>2020-08-11T15:18:55+02:00</time>
      </trkpt>
      <trkpt lat="43.54772" lon="1.15215">
        <ele>213</ele>
        <time>2020-08-11T15:19:06+02:00</time>
      </trkpt>
      <trkpt lat="43.54763" lon="1.15164">
        <ele>213</ele>
        <time>2020-08-11T15:19:36+02:00</time>
      </trkpt>
      <trkpt lat="43.54752" lon="1.15157">
        <ele>213</ele>
        <time>2020-08-11T15:19:46+02:00</time>
      </trkpt>
      <trkpt lat="43.54745" lon="1.15139">
        <ele>213</ele>
        <time>2020-08-11T15:19:58+02:00</time>
      </trkpt>
      <trkpt lat="43.54732" lon="1.15135">
        <ele>213</ele>
        <time>2020-08-11T15:20:09+02:00</time>
      </trkpt>
      <trkpt lat="43.54726" lon="1.15126">
        <ele>213</ele>
        <time>2020-08-11T15:20:16+02:00</time>
      </trkpt>
      <trkpt lat="43.54726" lon="1.15097">
        <ele>213</ele>
        <time>2020-08-11T15:20:32+02:00</time>
      </trkpt>
      <trkpt lat="43.54731" lon="1.15088">
        <ele>213</ele>
        <time>2020-08-11T15:20:39+02:00</time>
      </trkpt>
      <trkpt lat="43.54723" lon="1.15071">
        <ele>213</ele>
        <time>2020-08-11T15:20:52+02:00</time>
      </trkpt>
      <trkpt lat="43.5472" lon="1.1505">
        <ele>214</ele>
        <time>2020-08-11T15:21:04+02:00</time>
      </trkpt>
      <trkpt lat="43.54714" lon="1.15026">
        <ele>214</ele>
        <time>2020-08-11T15:21:19+02:00</time>
      </trkpt>
      <trkpt lat="43.54714" lon="1.15029">
        <ele>214</ele>
        <time>2020-08-11T15:21:21+02:00</time>
      </trkpt>
      <trkpt lat="43.54717" lon="1.15031">
        <ele>214</ele>
        <time>2020-08-11T15:21:24+02:00</time>
      </trkpt>
      <trkpt lat="43.54718" lon="1.15026">
        <ele>214</ele>
        <time>2020-08-11T15:21:27+02:00</time>
      </trkpt>
      <trkpt lat="43.54719" lon="1.1503">
        <ele>214</ele>
        <time>2020-08-11T15:21:29+02:00</time>
      </trkpt>
      <trkpt lat="43.54708" lon="1.15021">
        <ele>215</ele>
        <time>2020-08-11T15:21:39+02:00</time>
      </trkpt>
      <trkpt lat="43.54702" lon="1.15021">
        <ele>215</ele>
        <time>2020-08-11T15:21:44+02:00</time>
      </trkpt>
      <trkpt lat="43.5468" lon="1.15">
        <ele>215</ele>
        <time>2020-08-11T15:22:06+02:00</time>
      </trkpt>
      <trkpt lat="43.54665" lon="1.14988">
        <ele>215</ele>
        <time>2020-08-11T15:22:14+02:00</time>
      </trkpt>
      <trkpt lat="43.54637" lon="1.14977">
        <ele>216</ele>
        <time>2020-08-11T15:22:26+02:00</time>
      </trkpt>
      <trkpt lat="43.54623" lon="1.14959">
        <ele>216</ele>
        <time>2020-08-11T15:22:59+02:00</time>
      </trkpt>
      <trkpt lat="43.54615" lon="1.14946">
        <ele>216</ele>
        <time>2020-08-11T15:23:09+02:00</time>
      </trkpt>
      <trkpt lat="43.54608" lon="1.14947">
        <ele>216</ele>
        <time>2020-08-11T15:23:15+02:00</time>
      </trkpt>
      <trkpt lat="43.54612" lon="1.14945">
        <ele>216</ele>
        <time>2020-08-11T15:23:18+02:00</time>
      </trkpt>
      <trkpt lat="43.54609" lon="1.14947">
        <ele>216</ele>
        <time>2020-08-11T15:23:21+02:00</time>
      </trkpt>
      <trkpt lat="43.54616" lon="1.14949">
        <ele>216</ele>
        <time>2020-08-11T15:23:26+02:00</time>
      </trkpt>
      <trkpt lat="43.54621" lon="1.14943">
        <ele>216</ele>
        <time>2020-08-11T15:23:32+02:00</time>
      </trkpt>
      <trkpt lat="43.5463" lon="1.14923">
        <ele>216</ele>
        <time>2020-08-11T15:23:45+02:00</time>
      </trkpt>
      <trkpt lat="43.54636" lon="1.14919">
        <ele>216</ele>
        <time>2020-08-11T15:23:51+02:00</time>
      </trkpt>
      <trkpt lat="43.54639" lon="1.14906">
        <ele>216</ele>
        <time>2020-08-11T15:23:59+02:00</time>
      </trkpt>
      <trkpt lat="43.54651" lon="1.1489">
        <ele>216</ele>
        <time>2020-08-11T15:24:12+02:00</time>
      </trkpt>
      <trkpt lat="43.54658" lon="1.1489">
        <ele>216</ele>
        <time>2020-08-11T15:24:18+02:00</time>
      </trkpt>
      <trkpt lat="43.54671" lon="1.14902">
        <ele>215</ele>
        <time>2020-08-11T15:24:30+02:00</time>
      </trkpt>
      <trkpt lat="43.54685" lon="1.14907">
        <ele>215</ele>
        <time>2020-08-11T15:24:42+02:00</time>
      </trkpt>
      <trkpt lat="43.54701" lon="1.14919">
        <ele>215</ele>
        <time>2020-08-11T15:24:56+02:00</time>
      </trkpt>
      <trkpt lat="43.54728" lon="1.14927">
        <ele>214</ele>
        <time>2020-08-11T15:25:18+02:00</time>
      </trkpt>
      <trkpt lat="43.54769" lon="1.14941">
        <ele>214</ele>
        <time>2020-08-11T15:25:56+02:00</time>
      </trkpt>
      <trkpt lat="43.54792" lon="1.14949">
        <ele>215</ele>
        <time>2020-08-11T15:26:08+02:00</time>
      </trkpt>
      <trkpt lat="43.54806" lon="1.14959">
        <ele>215</ele>
        <time>2020-08-11T15:26:26+02:00</time>
      </trkpt>
      <trkpt lat="43.54831" lon="1.14971">
        <ele>216</ele>
        <time>2020-08-11T15:26:46+02:00</time>
      </trkpt>
      <trkpt lat="43.5485" lon="1.14974">
        <ele>216</ele>
        <time>2020-08-11T15:26:58+02:00</time>
      </trkpt>
      <trkpt lat="43.54871" lon="1.14989">
        <ele>216</ele>
        <time>2020-08-11T15:27:20+02:00</time>
      </trkpt>
      <trkpt lat="43.54891" lon="1.14991">
        <ele>217</ele>
        <time>2020-08-11T15:27:46+02:00</time>
      </trkpt>
      <trkpt lat="43.54911" lon="1.15005">
        <ele>218</ele>
        <time>2020-08-11T15:27:55+02:00</time>
      </trkpt>
      <trkpt lat="43.54936" lon="1.15023">
        <ele>218</ele>
        <time>2020-08-11T15:28:17+02:00</time>
      </trkpt>
      <trkpt lat="43.54967" lon="1.15044">
        <ele>218</ele>
        <time>2020-08-11T15:28:34+02:00</time>
      </trkpt>
      <trkpt lat="43.54985" lon="1.1506">
        <ele>218</ele>
        <time>2020-08-11T15:28:43+02:00</time>
      </trkpt>
      <trkpt lat="43.5503" lon="1.15095">
        <ele>218</ele>
        <time>2020-08-11T15:29:45+02:00</time>
      </trkpt>
      <trkpt lat="43.55061" lon="1.15114">
        <ele>218</ele>
        <time>2020-08-11T15:30:08+02:00</time>
      </trkpt>
      <trkpt lat="43.55093" lon="1.15146">
        <ele>218</ele>
        <time>2020-08-11T15:30:45+02:00</time>
      </trkpt>
      <trkpt lat="43.55111" lon="1.15159">
        <ele>218</ele>
        <time>2020-08-11T15:31:00+02:00</time>
      </trkpt>
      <trkpt lat="43.55149" lon="1.15183">
        <ele>219</ele>
        <time>2020-08-11T15:31:28+02:00</time>
      </trkpt>
      <trkpt lat="43.55167" lon="1.15211">
        <ele>220</ele>
        <time>2020-08-11T15:31:50+02:00</time>
      </trkpt>
      <trkpt lat="43.55172" lon="1.15411">
        <ele>219</ele>
        <time>2020-08-11T15:33:44+02:00</time>
      </trkpt>
      <trkpt lat="43.55176" lon="1.15469">
        <ele>219</ele>
        <time>2020-08-11T15:34:21+02:00</time>
      </trkpt>
      <trkpt lat="43.55182" lon="1.15592">
        <ele>219</ele>
        <time>2020-08-11T15:35:32+02:00</time>
      </trkpt>
      <trkpt lat="43.55187" lon="1.15616">
        <ele>219</ele>
        <time>2020-08-11T15:35:47+02:00</time>
      </trkpt>
      <trkpt lat="43.55188" lon="1.15759">
        <ele>219</ele>
        <time>2020-08-11T15:37:10+02:00</time>
      </trkpt>
      <trkpt lat="43.55166" lon="1.16002">
        <ele>215</ele>
        <time>2020-08-11T15:39:32+02:00</time>
      </trkpt>
      <trkpt lat="43.55167" lon="1.16044">
        <ele>215</ele>
        <time>2020-08-11T15:39:56+02:00</time>
      </trkpt>
      <trkpt lat="43.55159" lon="1.16112">
        <ele>215</ele>
        <time>2020-08-11T15:40:36+02:00</time>
      </trkpt>
      <trkpt lat="43.55157" lon="1.16197">
        <ele>215</ele>
        <time>2020-08-11T15:41:26+02:00</time>
      </trkpt>
      <trkpt lat="43.55132" lon="1.16411">
        <ele>212</ele>
        <time>2020-08-11T15:43:32+02:00</time>
      </trkpt>
      <trkpt lat="43.55133" lon="1.16453">
        <ele>212</ele>
        <time>2020-08-11T15:43:56+02:00</time>
      </trkpt>
      <trkpt lat="43.55125" lon="1.16553">
        <ele>211</ele>
        <time>2020-08-11T15:44:54+02:00</time>
      </trkpt>
      <trkpt lat="43.55127" lon="1.16656">
        <ele>210</ele>
        <time>2020-08-11T15:45:54+02:00</time>
      </trkpt>
      <trkpt lat="43.55119" lon="1.16684">
        <ele>210</ele>
        <time>2020-08-11T15:46:12+02:00</time>
      </trkpt>
      <trkpt lat="43.55114" lon="1.16732">
        <ele>209</ele>
        <time>2020-08-11T15:46:40+02:00</time>
      </trkpt>
      <trkpt lat="43.55081" lon="1.16845">
        <ele>209</ele>
        <time>2020-08-11T15:47:50+02:00</time>
      </trkpt>
      <trkpt lat="43.55056" lon="1.17076">
        <ele>207</ele>
        <time>2020-08-11T15:50:06+02:00</time>
      </trkpt>
      <trkpt lat="43.5506" lon="1.17079">
        <ele>207</ele>
        <time>2020-08-11T15:50:10+02:00</time>
      </trkpt>
      <trkpt lat="43.55071" lon="1.17071">
        <ele>207</ele>
        <time>2020-08-11T15:50:20+02:00</time>
      </trkpt>
      <trkpt lat="43.55097" lon="1.17078">
        <ele>208</ele>
        <time>2020-08-11T15:50:41+02:00</time>
      </trkpt>
      <trkpt lat="43.55102" lon="1.17071">
        <ele>208</ele>
        <time>2020-08-11T15:50:46+02:00</time>
      </trkpt>
      <trkpt lat="43.55117" lon="1.17082">
        <ele>208</ele>
        <time>2020-08-11T15:51:00+02:00</time>
      </trkpt>
      <trkpt lat="43.55141" lon="1.1708">
        <ele>208</ele>
        <time>2020-08-11T15:51:19+02:00</time>
      </trkpt>
      <trkpt lat="43.55309" lon="1.17092">
        <ele>208</ele>
        <time>2020-08-11T15:53:34+02:00</time>
      </trkpt>
      <trkpt lat="43.55303" lon="1.17111">
        <ele>208</ele>
        <time>2020-08-11T15:53:46+02:00</time>
      </trkpt>
      <trkpt lat="43.55293" lon="1.17194">
        <ele>208</ele>
        <time>2020-08-11T15:54:42+02:00</time>
      </trkpt>
      <trkpt lat="43.55287" lon="1.17253">
        <ele>208</ele>
        <time>2020-08-11T15:55:10+02:00</time>
      </trkpt>
      <trkpt lat="43.55288" lon="1.17333">
        <ele>207</ele>
        <time>2020-08-11T15:55:56+02:00</time>
      </trkpt>
      <trkpt lat="43.55289" lon="1.17364">
        <ele>207</ele>
        <time>2020-08-11T15:56:14+02:00</time>
      </trkpt>
      <trkpt lat="43.55291" lon="1.17413">
        <ele>207</ele>
        <time>2020-08-11T15:56:47+02:00</time>
      </trkpt>
      <trkpt lat="43.55291" lon="1.17428">
        <ele>207</ele>
        <time>2020-08-11T15:56:57+02:00</time>
      </trkpt>
      <trkpt lat="43.55292" lon="1.17441">
        <ele>207</ele>
        <time>2020-08-11T15:57:03+02:00</time>
      </trkpt>
      <trkpt lat="43.55294" lon="1.17502">
        <ele>207</ele>
        <time>2020-08-11T15:57:20+02:00</time>
      </trkpt>
      <trkpt lat="43.55305" lon="1.17639">
        <ele>206</ele>
        <time>2020-08-11T15:58:59+02:00</time>
      </trkpt>
      <trkpt lat="43.55303" lon="1.17683">
        <ele>206</ele>
        <time>2020-08-11T15:59:24+02:00</time>
      </trkpt>
      <trkpt lat="43.55315" lon="1.17737">
        <ele>206</ele>
        <time>2020-08-11T16:00:03+02:00</time>
      </trkpt>
      <trkpt lat="43.55322" lon="1.17763">
        <ele>206</ele>
        <time>2020-08-11T16:00:14+02:00</time>
      </trkpt>
      <trkpt lat="43.5532" lon="1.17786">
        <ele>205</ele>
        <time>2020-08-11T16:00:25+02:00</time>
      </trkpt>
      <trkpt lat="43.55301" lon="1.17859">
        <ele>205</ele>
        <time>2020-08-11T16:01:03+02:00</time>
      </trkpt>
      <trkpt lat="43.55322" lon="1.17856">
        <ele>205</ele>
      </trkpt>
      <trkpt lat="43.55363" lon="1.17866">
        <ele>205</ele>
        <time>2020-08-11T16:01:38+02:00</time>
      </trkpt>
      <trkpt lat="43.55421" lon="1.17878">
        <ele>204</ele>
        <time>2020-08-11T16:02:25+02:00</time>
      </trkpt>
      <trkpt lat="43.55431" lon="1.17877">
        <ele>204</ele>
        <time>2020-08-11T16:02:33+02:00</time>
      </trkpt>
      <trkpt lat="43.5551" lon="1.179">
        <ele>203</ele>
        <time>2020-08-11T16:03:38+02:00</time>
      </trkpt>
      <trkpt lat="43.55525" lon="1.17892">
        <ele>203</ele>
        <time>2020-08-11T16:03:50+02:00</time>
      </trkpt>
      <trkpt lat="43.55538" lon="1.17892">
        <ele>203</ele>
        <time>2020-08-11T16:04:01+02:00</time>
      </trkpt>
      <trkpt lat="43.5562" lon="1.17957">
        <ele>202</ele>
        <time>2020-08-11T16:05:17+02:00</time>
      </trkpt>
      <trkpt lat="43.55683" lon="1.17856">
        <ele>203</ele>
        <time>2020-08-11T16:06:26+02:00</time>
      </trkpt>
      <trkpt lat="43.55685" lon="1.17827">
        <ele>203</ele>
        <time>2020-08-11T16:06:40+02:00</time>
      </trkpt>
      <trkpt lat="43.557" lon="1.17793">
        <ele>203</ele>
        <time>2020-08-11T16:06:57+02:00</time>
      </trkpt>
      <trkpt lat="43.55718" lon="1.17759">
        <ele>203</ele>
      </trkpt>
      <trkpt lat="43.5573" lon="1.17744">
        <ele>203</ele>
      </trkpt>
      <trkpt lat="43.55751" lon="1.17712">
        <ele>204</ele>
        <time>2020-08-11T16:07:19+02:00</time>
      </trkpt>
    </trkseg>
  </trk>
</gpx>